Latest Weather Observations for Little Bay

IDN60801

Issued at 6:23 pm EST Saturday 9 May 2026 (issued every 10 minutes, with the page automatically refreshed every 10 minutes)

About weather observations | Map of weather stations | Latest weather observations for NSW | Other Formats
Station Details ID: 066051 Name: LITTLE BAY (THE COAST GOLF CLUB) Lat: -33.98 Lon: 151.25 Height: 22.0 m
Data from the previous 72 hours. | See also: Recent months at Little Bay
Date/Time
EST
Temp
°C
App
Temp
°C
Dew
Point
°C
Rel
Hum
%
Delta-T
°C
Wind Press
QNH
hPa
Press
MSL
hPa
Rain since
9am
mm
Dir  Spd
km/h
Gust
km/h
Spd
kts
Gust
kts
09/06:00pm - - - - - SE 9 13 5 7 - - -
09/05:30pm - - - - - SSE 7 11 4 6 - - -
09/05:00pm - - - - - SSE 11 15 6 8 - - -
09/04:30pm - - - - - SSE 13 17 7 9 - - -
09/04:00pm - - - - - S 7 11 4 6 - - -
09/03:30pm - - - - - SSE 11 15 6 8 - - -
09/03:00pm - - - - - SSE 13 19 7 10 - - -
09/02:30pm - - - - - S 13 19 7 10 - - -
09/02:00pm - - - - - SSE 17 20 9 11 - - -
09/01:30pm - - - - - S 15 20 8 11 - - -
09/01:00pm - - - - - S 17 22 9 12 - - -
09/12:30pm - - - - - S 17 24 9 13 - - -
09/12:00pm - - - - - SSW 15 20 8 11 - - -
09/11:30am - - - - - SSW 17 22 9 12 - - -
09/11:00am - - - - - SSW 17 22 9 12 - - -
09/10:30am - - - - - W 9 19 5 10 - - -
09/10:00am - - - - - W 13 19 7 10 - - -
09/09:30am - - - - - W 13 17 7 9 - - -
09/09:00am - - - - - W 15 19 8 10 - - -
09/08:30am - - - - - W 15 20 8 11 - - -
09/08:00am - - - - - W 13 19 7 10 - - -
09/07:30am - - - - - W 15 22 8 12 - - -
09/07:00am - - - - - WNW 15 19 8 10 - - -
09/06:30am - - - - - WNW 11 15 6 8 - - -
09/06:00am - - - - - WNW 9 13 5 7 - - -
09/05:30am - - - - - WNW 9 13 5 7 - - -
09/05:00am - - - - - WNW 9 15 5 8 - - -
09/04:30am - - - - - WNW 9 13 5 7 - - -
09/04:00am - - - - - W 9 15 5 8 - - -
09/03:30am - - - - - W 11 19 6 10 - - -
09/03:00am - - - - - W 13 19 7 10 - - -
09/02:30am - - - - - W 9 15 5 8 - - -
09/02:00am - - - - - W 11 15 6 8 - - -
09/01:30am - - - - - W 11 15 6 8 - - -
09/01:00am - - - - - W 13 20 7 11 - - -
09/12:30am - - - - - W 11 17 6 9 - - -
09/12:00am - - - - - WSW 13 19 7 10 - - -
 
Date/Time
EST
Temp
°C
App
Temp
°C
Dew
Point
°C
Rel
Hum
%
Delta-T
°C
Wind Press
QNH
hPa
Press
MSL
hPa
Rain since
9am
mm
Dir  Spd
km/h
Gust
km/h
Spd
kts
Gust
kts
08/11:30pm - - - - - WSW 11 17 6 9 - - -
08/11:00pm - - - - - WSW 13 24 7 13 - - -
08/10:30pm - - - - - WSW 11 20 6 11 - - -
08/10:00pm - - - - - WSW 15 22 8 12 - - -
08/09:30pm - - - - - WSW 17 24 9 13 - - -
08/09:00pm - - - - - WSW 19 30 10 16 - - -
08/08:30pm - - - - - WSW 19 28 10 15 - - -
08/08:00pm - - - - - WSW 20 32 11 17 - - -
08/07:30pm - - - - - WSW 19 35 10 19 - - -
08/07:00pm - - - - - WSW 17 28 9 15 - - -
08/06:30pm - - - - - WSW 17 28 9 15 - - -
08/06:00pm - - - - - WSW 17 30 9 16 - - -
08/05:30pm - - - - - WSW 19 28 10 15 - - -
08/05:00pm - - - - - WSW 19 32 10 17 - - -
08/04:30pm - - - - - WSW 17 32 9 17 - - -
08/04:00pm - - - - - WSW 15 28 8 15 - - -
08/03:30pm - - - - - WSW 19 30 10 16 - - -
08/03:00pm - - - - - WSW 17 26 9 14 - - -
08/02:30pm - - - - - W 15 30 8 16 - - -
08/02:00pm - - - - - W 17 28 9 15 - - -
08/01:30pm - - - - - W 17 26 9 14 - - -
08/01:00pm - - - - - W 19 30 10 16 - - -
08/12:30pm - - - - - W 20 33 11 18 - - -
08/12:00pm - - - - - W 20 32 11 17 - - -
08/11:30am - - - - - W 22 37 12 20 - - -
08/11:00am - - - - - W 20 35 11 19 - - -
08/10:30am - - - - - W 24 39 13 21 - - -
08/10:00am - - - - - W 20 35 11 19 - - -
08/09:30am - - - - - W 19 28 10 15 - - -
08/09:00am - - - - - WNW 15 26 8 14 - - -
08/08:30am - - - - - WNW 19 33 10 18 - - -
08/08:00am - - - - - WNW 19 28 10 15 - - -
08/07:30am - - - - - WNW 17 26 9 14 - - -
08/07:00am - - - - - WNW 13 24 7 13 - - -
08/06:30am - - - - - WNW 17 28 9 15 - - -
08/06:00am - - - - - W 19 28 10 15 - - -
08/05:30am - - - - - W 17 26 9 14 - - -
08/05:00am - - - - - W 17 28 9 15 - - -
08/04:30am - - - - - W 19 32 10 17 - - -
08/04:00am - - - - - W 15 24 8 13 - - -
08/03:30am - - - - - W 13 32 7 17 - - -
08/03:00am - - - - - W 15 24 8 13 - - -
08/02:30am - - - - - W 15 32 8 17 - - -
08/02:00am - - - - - W 13 24 7 13 - - -
08/01:30am - - - - - W 19 32 10 17 - - -
08/01:00am - - - - - W 19 32 10 17 - - -
08/12:30am - - - - - W 17 24 9 13 - - -
08/12:00am - - - - - W 15 26 8 14 - - -
 
Date/Time
EST
Temp
°C
App
Temp
°C
Dew
Point
°C
Rel
Hum
%
Delta-T
°C
Wind Press
QNH
hPa
Press
MSL
hPa
Rain since
9am
mm
Dir  Spd
km/h
Gust
km/h
Spd
kts
Gust
kts
07/11:30pm - - - - - WSW 15 26 8 14 - - -
07/11:00pm - - - - - WSW 20 35 11 19 - - -
07/10:30pm - - - - - W 17 28 9 15 - - -
07/10:00pm - - - - - W 19 28 10 15 - - -
07/09:30pm - - - - - W 20 39 11 21 - - -
07/09:00pm - - - - - W 24 43 13 23 - - -
07/08:30pm - - - - - WSW 17 28 9 15 - - -
07/08:00pm - - - - - W 22 37 12 20 - - -
07/07:30pm - - - - - W 22 39 12 21 - - -
07/07:00pm - - - - - W 24 39 13 21 - - -
07/06:30pm - - - - - W 24 41 13 22 - - -
07/06:00pm - - - - - W 20 37 11 20 - - -
07/05:30pm - - - - - W 22 41 12 22 - - -
07/05:00pm - - - - - W 24 39 13 21 - - -
07/04:30pm - - - - - WSW 24 43 13 23 - - -
07/04:00pm - - - - - WSW 24 39 13 21 - - -
07/03:30pm - - - - - WSW 22 39 12 21 - - -
07/03:00pm - - - - - WSW 22 43 12 23 - - -
07/02:30pm - - - - - WSW 24 37 13 20 - - -
07/02:00pm - - - - - WSW 30 43 16 23 - - -
07/01:30pm - - - - - W 24 37 13 20 - - -
07/01:00pm - - - - - WSW 22 35 12 19 - - -
07/12:30pm - - - - - WSW 26 39 14 21 - - -
07/12:00pm - - - - - WSW 28 44 15 24 - - -
07/11:56am - - - - - WSW 28 48 15 26 - - -
07/11:30am - - - - - WSW 22 33 12 18 - - -
07/11:00am - - - - - WSW 22 33 12 18 - - -
07/10:36am - - - - - WSW 22 48 12 26 - - -
07/10:35am - - - - - WSW 20 48 11 26 - - -
07/10:30am - - - - - W 17 30 9 16 - - -
07/10:00am - - - - - W 11 19 6 10 - - -
07/09:30am - - - - - NW 7 13 4 7 - - -
07/09:00am - - - - - WNW 7 13 4 7 - - -
07/08:30am - - - - - NW 4 13 2 7 - - -
07/08:00am - - - - - NW 4 6 2 3 - - -
07/07:30am - - - - - NW 2 6 1 3 - - -
07/07:00am - - - - - WNW 9 13 5 7 - - -
07/06:30am - - - - - W 11 17 6 9 - - -
07/06:00am - - - - - WSW 9 17 5 9 - - -
07/05:30am - - - - - WSW 17 32 9 17 - - -
07/05:00am - - - - - SW 17 28 9 15 - - -
07/04:30am - - - - - WSW 13 22 7 12 - - -
07/04:00am - - - - - WSW 9 15 5 8 - - -
07/03:30am - - - - - WSW 11 19 6 10 - - -
07/03:00am - - - - - W 7 11 4 6 - - -
07/02:30am - - - - - WNW 7 9 4 5 - - -
07/02:00am - - - - - WNW 7 13 4 7 - - -
07/01:30am - - - - - WNW 7 9 4 5 - - -
07/01:00am - - - - - WNW 7 11 4 6 - - -
07/12:30am - - - - - WNW 9 15 5 8 - - -
07/12:00am - - - - - WNW 6 9 3 5 - - -
 
Date/Time
EST
Temp
°C
App
Temp
°C
Dew
Point
°C
Rel
Hum
%
Delta-T
°C
Wind Press
QNH
hPa
Press
MSL
hPa
Rain since
9am
mm
Dir  Spd
km/h
Gust
km/h
Spd
kts
Gust
kts
06/11:30pm - - - - - NW 6 7 3 4 - - -
06/11:00pm - - - - - WNW 9 13 5 7 - - -
06/10:30pm - - - - - WNW 7 11 4 6 - - -
06/10:00pm - - - - - WNW 7 11 4 6 - - -
06/09:30pm - - - - - NW 7 9 4 5 - - -
06/09:00pm - - - - - NW 7 9 4 5 - - -
06/08:30pm - - - - - NNW 4 6 2 3 - - -
06/08:00pm - - - - - N 4 6 2 3 - - -
06/07:30pm - - - - - N 6 7 3 4 - - -
06/07:00pm - - - - - N 6 9 3 5 - - -
06/06:30pm - - - - - NNE 7 11 4 6 - - -

Other formats

Comma delimited format used in spreadsheet applications
http://www.bom.gov.au/fwo/IDN60801/IDN60801.94780.axf

JavaScript Object Notation format (JSON) in row-major order
http://www.bom.gov.au/fwo/IDN60801/IDN60801.94780.json

Data quality

Most of these data are generated automatically and are frequently updated. Quality checks on data are not normally performed. It is possible for incorrect values to appear. Refer to information at About Latest Weather Observations and please check the disclaimer before using these data.